sensor_id;sensor_type;location;lat;lon;timestamp;P1;durP1;ratioP1;P2;durP2;ratioP2
21665;SDS011;10994;45.486;9.190;2024-02-23T00:02:17;8.03;;;4.40;;
21665;SDS011;10994;45.486;9.190;2024-02-23T00:04:43;8.87;;;4.87;;
21665;SDS011;10994;45.486;9.190;2024-02-23T00:07:10;6.10;;;4.60;;
21665;SDS011;10994;45.486;9.190;2024-02-23T00:09:36;5.07;;;4.37;;
21665;SDS011;10994;45.486;9.190;2024-02-23T00:12:02;5.30;;;4.13;;
21665;SDS011;10994;45.486;9.190;2024-02-23T00:14:28;5.50;;;4.30;;
21665;SDS011;10994;45.486;9.190;2024-02-23T00:16:55;6.83;;;4.77;;
21665;SDS011;10994;45.486;9.190;2024-02-23T00:19:22;4.67;;;4.03;;
21665;SDS011;10994;45.486;9.190;2024-02-23T00:21:49;4.30;;;3.83;;
21665;SDS011;10994;45.486;9.190;2024-02-23T00:24:18;5.43;;;3.90;;
21665;SDS011;10994;45.486;9.190;2024-02-23T00:26:46;5.97;;;4.33;;
21665;SDS011;10994;45.486;9.190;2024-02-23T00:29:12;7.03;;;4.53;;
21665;SDS011;10994;45.486;9.190;2024-02-23T00:31:38;6.47;;;4.73;;
21665;SDS011;10994;45.486;9.190;2024-02-23T00:34:06;4.80;;;3.80;;
21665;SDS011;10994;45.486;9.190;2024-02-23T00:36:35;5.13;;;4.50;;
21665;SDS011;10994;45.486;9.190;2024-02-23T00:39:05;7.00;;;4.00;;
21665;SDS011;10994;45.486;9.190;2024-02-23T00:41:32;5.23;;;3.93;;
21665;SDS011;10994;45.486;9.190;2024-02-23T00:43:58;5.90;;;5.23;;
21665;SDS011;10994;45.486;9.190;2024-02-23T00:46:24;7.40;;;5.40;;
21665;SDS011;10994;45.486;9.190;2024-02-23T00:48:49;4.63;;;3.80;;
21665;SDS011;10994;45.486;9.190;2024-02-23T00:51:15;5.63;;;4.23;;
21665;SDS011;10994;45.486;9.190;2024-02-23T00:53:41;6.73;;;4.13;;
21665;SDS011;10994;45.486;9.190;2024-02-23T00:56:07;6.90;;;4.67;;
21665;SDS011;10994;45.486;9.190;2024-02-23T00:58:32;5.60;;;4.03;;
21665;SDS011;10994;45.486;9.190;2024-02-23T01:00:59;5.73;;;4.33;;
21665;SDS011;10994;45.486;9.190;2024-02-23T01:03:24;4.23;;;3.83;;
21665;SDS011;10994;45.486;9.190;2024-02-23T01:05:50;5.30;;;4.03;;
21665;SDS011;10994;45.486;9.190;2024-02-23T01:08:16;6.93;;;3.47;;
21665;SDS011;10994;45.486;9.190;2024-02-23T01:10:41;4.57;;;3.30;;
21665;SDS011;10994;45.486;9.190;2024-02-23T01:13:07;4.13;;;3.23;;
21665;SDS011;10994;45.486;9.190;2024-02-23T01:15:33;4.17;;;3.77;;
21665;SDS011;10994;45.486;9.190;2024-02-23T01:17:59;4.03;;;3.23;;
21665;SDS011;10994;45.486;9.190;2024-02-23T01:20:24;4.50;;;3.70;;
21665;SDS011;10994;45.486;9.190;2024-02-23T01:22:50;4.43;;;3.37;;
21665;SDS011;10994;45.486;9.190;2024-02-23T01:25:16;5.20;;;3.60;;
21665;SDS011;10994;45.486;9.190;2024-02-23T01:27:41;3.77;;;2.80;;
21665;SDS011;10994;45.486;9.190;2024-02-23T01:30:09;4.90;;;2.87;;
21665;SDS011;10994;45.486;9.190;2024-02-23T01:32:35;3.70;;;2.93;;
21665;SDS011;10994;45.486;9.190;2024-02-23T01:35:03;3.40;;;3.00;;
21665;SDS011;10994;45.486;9.190;2024-02-23T01:37:33;3.90;;;2.80;;
21665;SDS011;10994;45.486;9.190;2024-02-23T01:39:59;4.00;;;2.47;;
21665;SDS011;10994;45.486;9.190;2024-02-23T01:42:25;3.10;;;2.67;;
21665;SDS011;10994;45.486;9.190;2024-02-23T01:44:51;2.83;;;2.33;;
21665;SDS011;10994;45.486;9.190;2024-02-23T01:47:17;2.67;;;2.47;;
21665;SDS011;10994;45.486;9.190;2024-02-23T01:49:43;3.60;;;2.63;;
21665;SDS011;10994;45.486;9.190;2024-02-23T01:52:11;2.50;;;2.13;;
21665;SDS011;10994;45.486;9.190;2024-02-23T01:54:38;2.77;;;2.30;;
21665;SDS011;10994;45.486;9.190;2024-02-23T01:57:05;3.13;;;2.10;;
21665;SDS011;10994;45.486;9.190;2024-02-23T01:59:33;2.70;;;1.70;;
21665;SDS011;10994;45.486;9.190;2024-02-23T02:02:02;2.40;;;1.80;;
21665;SDS011;10994;45.486;9.190;2024-02-23T02:04:28;1.70;;;1.60;;
21665;SDS011;10994;45.486;9.190;2024-02-23T02:06:54;3.00;;;1.77;;
21665;SDS011;10994;45.486;9.190;2024-02-23T02:09:21;1.77;;;1.67;;
21665;SDS011;10994;45.486;9.190;2024-02-23T02:11:47;2.80;;;1.50;;
21665;SDS011;10994;45.486;9.190;2024-02-23T02:14:13;2.10;;;1.63;;
21665;SDS011;10994;45.486;9.190;2024-02-23T02:16:39;1.97;;;1.63;;
21665;SDS011;10994;45.486;9.190;2024-02-23T02:19:05;1.97;;;1.77;;
21665;SDS011;10994;45.486;9.190;2024-02-23T02:21:31;1.20;;;1.10;;
21665;SDS011;10994;45.486;9.190;2024-02-23T02:23:58;1.47;;;1.23;;
21665;SDS011;10994;45.486;9.190;2024-02-23T02:26:23;1.87;;;1.40;;
21665;SDS011;10994;45.486;9.190;2024-02-23T02:28:49;1.57;;;1.30;;
21665;SDS011;10994;45.486;9.190;2024-02-23T02:31:14;1.60;;;1.20;;
21665;SDS011;10994;45.486;9.190;2024-02-23T02:33:40;1.27;;;1.00;;
21665;SDS011;10994;45.486;9.190;2024-02-23T02:36:06;1.90;;;1.27;;
21665;SDS011;10994;45.486;9.190;2024-02-23T02:38:32;1.53;;;1.00;;
21665;SDS011;10994;45.486;9.190;2024-02-23T02:41:01;1.00;;;0.90;;
21665;SDS011;10994;45.486;9.190;2024-02-23T02:43:27;1.20;;;1.10;;
21665;SDS011;10994;45.486;9.190;2024-02-23T02:45:52;1.53;;;0.80;;
21665;SDS011;10994;45.486;9.190;2024-02-23T02:48:18;1.33;;;0.90;;
21665;SDS011;10994;45.486;9.190;2024-02-23T02:50:44;2.43;;;1.30;;
21665;SDS011;10994;45.486;9.190;2024-02-23T02:53:12;0.90;;;0.80;;
21665;SDS011;10994;45.486;9.190;2024-02-23T02:55:40;1.67;;;1.07;;
21665;SDS011;10994;45.486;9.190;2024-02-23T02:58:07;2.17;;;1.20;;
21665;SDS011;10994;45.486;9.190;2024-02-23T03:00:33;1.57;;;1.10;;
21665;SDS011;10994;45.486;9.190;2024-02-23T03:02:58;1.80;;;1.00;;
21665;SDS011;10994;45.486;9.190;2024-02-23T03:05:24;1.13;;;0.87;;
21665;SDS011;10994;45.486;9.190;2024-02-23T03:07:50;1.30;;;0.97;;
21665;SDS011;10994;45.486;9.190;2024-02-23T03:10:16;1.57;;;1.10;;
21665;SDS011;10994;45.486;9.190;2024-02-23T03:12:42;1.40;;;1.30;;
21665;SDS011;10994;45.486;9.190;2024-02-23T03:15:08;1.53;;;1.13;;
21665;SDS011;10994;45.486;9.190;2024-02-23T03:17:35;1.97;;;1.20;;
21665;SDS011;10994;45.486;9.190;2024-02-23T03:20:01;2.30;;;1.30;;
21665;SDS011;10994;45.486;9.190;2024-02-23T03:22:27;1.20;;;1.10;;
21665;SDS011;10994;45.486;9.190;2024-02-23T03:24:52;1.40;;;1.30;;
21665;SDS011;10994;45.486;9.190;2024-02-23T03:27:18;2.87;;;1.50;;
21665;SDS011;10994;45.486;9.190;2024-02-23T03:29:44;3.60;;;1.10;;
21665;SDS011;10994;45.486;9.190;2024-02-23T03:32:10;1.47;;;1.10;;
21665;SDS011;10994;45.486;9.190;2024-02-23T03:34:36;2.17;;;1.70;;
21665;SDS011;10994;45.486;9.190;2024-02-23T03:37:02;1.50;;;1.37;;
21665;SDS011;10994;45.486;9.190;2024-02-23T03:39:28;1.60;;;1.40;;
21665;SDS011;10994;45.486;9.190;2024-02-23T03:41:54;2.67;;;1.20;;
21665;SDS011;10994;45.486;9.190;2024-02-23T03:44:19;1.10;;;1.00;;
21665;SDS011;10994;45.486;9.190;2024-02-23T03:46:45;3.13;;;1.60;;
21665;SDS011;10994;45.486;9.190;2024-02-23T03:49:11;2.00;;;1.20;;
21665;SDS011;10994;45.486;9.190;2024-02-23T03:51:37;1.87;;;1.40;;
21665;SDS011;10994;45.486;9.190;2024-02-23T03:54:04;2.03;;;1.43;;
21665;SDS011;10994;45.486;9.190;2024-02-23T03:56:37;1.57;;;1.37;;
21665;SDS011;10994;45.486;9.190;2024-02-23T03:59:07;1.80;;;1.50;;
21665;SDS011;10994;45.486;9.190;2024-02-23T04:01:35;2.40;;;1.70;;
21665;SDS011;10994;45.486;9.190;2024-02-23T04:04:02;1.33;;;1.23;;
21665;SDS011;10994;45.486;9.190;2024-02-23T04:06:28;2.60;;;1.40;;
21665;SDS011;10994;45.486;9.190;2024-02-23T04:08:53;3.30;;;1.73;;
21665;SDS011;10994;45.486;9.190;2024-02-23T04:11:19;2.03;;;1.40;;
21665;SDS011;10994;45.486;9.190;2024-02-23T04:13:45;2.20;;;1.73;;
21665;SDS011;10994;45.486;9.190;2024-02-23T04:16:10;1.60;;;1.50;;
21665;SDS011;10994;45.486;9.190;2024-02-23T04:18:36;3.30;;;2.30;;
21665;SDS011;10994;45.486;9.190;2024-02-23T04:21:02;1.47;;;1.37;;
21665;SDS011;10994;45.486;9.190;2024-02-23T04:23:27;1.97;;;1.60;;
21665;SDS011;10994;45.486;9.190;2024-02-23T04:25:53;3.10;;;1.70;;
21665;SDS011;10994;45.486;9.190;2024-02-23T04:28:19;2.27;;;1.40;;
21665;SDS011;10994;45.486;9.190;2024-02-23T04:30:45;1.80;;;1.60;;
21665;SDS011;10994;45.486;9.190;2024-02-23T04:33:10;1.93;;;1.27;;
21665;SDS011;10994;45.486;9.190;2024-02-23T04:35:36;2.70;;;1.50;;
21665;SDS011;10994;45.486;9.190;2024-02-23T04:38:02;2.33;;;1.83;;
21665;SDS011;10994;45.486;9.190;2024-02-23T04:40:27;1.97;;;1.67;;
21665;SDS011;10994;45.486;9.190;2024-02-23T04:42:53;2.53;;;2.03;;
21665;SDS011;10994;45.486;9.190;2024-02-23T04:45:19;5.03;;;3.87;;
21665;SDS011;10994;45.486;9.190;2024-02-23T04:47:44;3.43;;;1.80;;
21665;SDS011;10994;45.486;9.190;2024-02-23T04:50:11;2.30;;;1.67;;
21665;SDS011;10994;45.486;9.190;2024-02-23T04:52:37;2.80;;;1.87;;
21665;SDS011;10994;45.486;9.190;2024-02-23T04:55:03;3.90;;;2.00;;
21665;SDS011;10994;45.486;9.190;2024-02-23T04:57:30;2.43;;;1.77;;
21665;SDS011;10994;45.486;9.190;2024-02-23T04:59:56;4.60;;;2.20;;
21665;SDS011;10994;45.486;9.190;2024-02-23T05:02:22;2.90;;;2.07;;
21665;SDS011;10994;45.486;9.190;2024-02-23T05:04:47;2.10;;;1.67;;
21665;SDS011;10994;45.486;9.190;2024-02-23T05:07:13;2.17;;;1.70;;
21665;SDS011;10994;45.486;9.190;2024-02-23T05:09:39;2.70;;;2.13;;
21665;SDS011;10994;45.486;9.190;2024-02-23T05:12:06;2.73;;;1.90;;
21665;SDS011;10994;45.486;9.190;2024-02-23T05:14:33;2.93;;;2.27;;
21665;SDS011;10994;45.486;9.190;2024-02-23T05:16:58;3.73;;;2.33;;
21665;SDS011;10994;45.486;9.190;2024-02-23T05:19:24;2.53;;;2.20;;
21665;SDS011;10994;45.486;9.190;2024-02-23T05:21:50;2.53;;;2.10;;
21665;SDS011;10994;45.486;9.190;2024-02-23T05:24:15;2.53;;;2.07;;
21665;SDS011;10994;45.486;9.190;2024-02-23T05:26:41;2.60;;;2.00;;
21665;SDS011;10994;45.486;9.190;2024-02-23T05:29:09;4.23;;;2.07;;
21665;SDS011;10994;45.486;9.190;2024-02-23T05:31:45;2.40;;;2.20;;
21665;SDS011;10994;45.486;9.190;2024-02-23T05:34:12;4.47;;;2.30;;
21665;SDS011;10994;45.486;9.190;2024-02-23T05:36:38;4.63;;;2.10;;
21665;SDS011;10994;45.486;9.190;2024-02-23T05:39:03;2.97;;;2.27;;
21665;SDS011;10994;45.486;9.190;2024-02-23T05:41:29;3.57;;;2.53;;
21665;SDS011;10994;45.486;9.190;2024-02-23T05:43:55;5.17;;;2.60;;
21665;SDS011;10994;45.486;9.190;2024-02-23T05:46:20;2.37;;;2.17;;
21665;SDS011;10994;45.486;9.190;2024-02-23T05:48:46;5.17;;;2.93;;
21665;SDS011;10994;45.486;9.190;2024-02-23T05:51:12;3.23;;;2.43;;
21665;SDS011;10994;45.486;9.190;2024-02-23T05:53:37;3.20;;;2.30;;
21665;SDS011;10994;45.486;9.190;2024-02-23T05:56:03;3.10;;;2.57;;
21665;SDS011;10994;45.486;9.190;2024-02-23T05:58:29;3.17;;;2.33;;
21665;SDS011;10994;45.486;9.190;2024-02-23T06:00:55;3.80;;;3.03;;
21665;SDS011;10994;45.486;9.190;2024-02-23T06:03:20;2.60;;;2.37;;
21665;SDS011;10994;45.486;9.190;2024-02-23T06:05:46;2.93;;;2.63;;
21665;SDS011;10994;45.486;9.190;2024-02-23T06:08:11;2.50;;;2.23;;
21665;SDS011;10994;45.486;9.190;2024-02-23T06:10:37;2.57;;;2.00;;
21665;SDS011;10994;45.486;9.190;2024-02-23T06:13:03;2.40;;;2.03;;
21665;SDS011;10994;45.486;9.190;2024-02-23T06:15:29;2.40;;;1.80;;
21665;SDS011;10994;45.486;9.190;2024-02-23T06:17:54;2.90;;;1.60;;
21665;SDS011;10994;45.486;9.190;2024-02-23T06:20:20;2.07;;;1.73;;
21665;SDS011;10994;45.486;9.190;2024-02-23T06:22:46;3.43;;;1.87;;
21665;SDS011;10994;45.486;9.190;2024-02-23T06:25:11;1.67;;;1.57;;
21665;SDS011;10994;45.486;9.190;2024-02-23T06:27:37;1.13;;;1.10;;
21665;SDS011;10994;45.486;9.190;2024-02-23T06:30:03;1.60;;;1.43;;
21665;SDS011;10994;45.486;9.190;2024-02-23T06:32:29;1.57;;;1.43;;
21665;SDS011;10994;45.486;9.190;2024-02-23T06:34:55;3.30;;;2.20;;
21665;SDS011;10994;45.486;9.190;2024-02-23T06:37:21;3.27;;;2.13;;
21665;SDS011;10994;45.486;9.190;2024-02-23T06:39:46;2.07;;;1.50;;
21665;SDS011;10994;45.486;9.190;2024-02-23T06:42:19;1.70;;;1.40;;
21665;SDS011;10994;45.486;9.190;2024-02-23T06:44:45;2.80;;;1.83;;
21665;SDS011;10994;45.486;9.190;2024-02-23T06:47:11;2.27;;;1.93;;
21665;SDS011;10994;45.486;9.190;2024-02-23T06:49:37;1.80;;;1.70;;
21665;SDS011;10994;45.486;9.190;2024-02-23T06:52:07;1.70;;;1.60;;
21665;SDS011;10994;45.486;9.190;2024-02-23T06:54:32;3.47;;;2.40;;
21665;SDS011;10994;45.486;9.190;2024-02-23T06:56:58;2.67;;;2.10;;
21665;SDS011;10994;45.486;9.190;2024-02-23T06:59:24;2.17;;;1.70;;
21665;SDS011;10994;45.486;9.190;2024-02-23T07:01:50;1.73;;;1.50;;
21665;SDS011;10994;45.486;9.190;2024-02-23T07:04:16;2.00;;;1.80;;
21665;SDS011;10994;45.486;9.190;2024-02-23T07:06:41;2.30;;;2.00;;
21665;SDS011;10994;45.486;9.190;2024-02-23T07:09:08;1.97;;;1.80;;
21665;SDS011;10994;45.486;9.190;2024-02-23T07:11:34;3.20;;;1.67;;
21665;SDS011;10994;45.486;9.190;2024-02-23T07:14:00;4.13;;;3.23;;
21665;SDS011;10994;45.486;9.190;2024-02-23T07:16:25;2.37;;;2.13;;
21665;SDS011;10994;45.486;9.190;2024-02-23T07:18:51;3.73;;;2.03;;
21665;SDS011;10994;45.486;9.190;2024-02-23T07:21:17;3.07;;;2.17;;
21665;SDS011;10994;45.486;9.190;2024-02-23T07:23:43;2.47;;;2.03;;
21665;SDS011;10994;45.486;9.190;2024-02-23T07:26:09;3.00;;;2.10;;
21665;SDS011;10994;45.486;9.190;2024-02-23T07:28:34;2.07;;;1.87;;
21665;SDS011;10994;45.486;9.190;2024-02-23T07:31:00;3.47;;;2.00;;
21665;SDS011;10994;45.486;9.190;2024-02-23T07:33:26;4.77;;;2.27;;
21665;SDS011;10994;45.486;9.190;2024-02-23T07:35:51;5.47;;;2.73;;
21665;SDS011;10994;45.486;9.190;2024-02-23T07:38:17;2.07;;;1.87;;
21665;SDS011;10994;45.486;9.190;2024-02-23T07:40:43;2.90;;;2.57;;
21665;SDS011;10994;45.486;9.190;2024-02-23T07:43:09;2.00;;;1.80;;
21665;SDS011;10994;45.486;9.190;2024-02-23T07:45:36;3.70;;;2.37;;
21665;SDS011;10994;45.486;9.190;2024-02-23T07:48:02;2.13;;;1.93;;
21665;SDS011;10994;45.486;9.190;2024-02-23T07:50:28;6.20;;;3.47;;
21665;SDS011;10994;45.486;9.190;2024-02-23T07:52:54;7.10;;;4.27;;
21665;SDS011;10994;45.486;9.190;2024-02-23T07:55:20;5.87;;;4.10;;
21665;SDS011;10994;45.486;9.190;2024-02-23T07:57:45;3.60;;;3.30;;
21665;SDS011;10994;45.486;9.190;2024-02-23T08:00:11;6.20;;;3.00;;
21665;SDS011;10994;45.486;9.190;2024-02-23T08:02:38;2.97;;;2.33;;
21665;SDS011;10994;45.486;9.190;2024-02-23T08:05:04;2.90;;;2.60;;
21665;SDS011;10994;45.486;9.190;2024-02-23T08:07:29;4.60;;;2.63;;
21665;SDS011;10994;45.486;9.190;2024-02-23T08:09:56;3.17;;;2.10;;
21665;SDS011;10994;45.486;9.190;2024-02-23T08:12:22;3.47;;;2.47;;
21665;SDS011;10994;45.486;9.190;2024-02-23T08:14:47;3.27;;;2.40;;
21665;SDS011;10994;45.486;9.190;2024-02-23T08:17:15;1.90;;;1.80;;
21665;SDS011;10994;45.486;9.190;2024-02-23T08:19:41;2.53;;;1.93;;
21665;SDS011;10994;45.486;9.190;2024-02-23T08:22:07;5.17;;;4.67;;
21665;SDS011;10994;45.486;9.190;2024-02-23T08:24:32;2.00;;;1.80;;
21665;SDS011;10994;45.486;9.190;2024-02-23T08:26:58;4.40;;;3.30;;
21665;SDS011;10994;45.486;9.190;2024-02-23T08:29:23;3.47;;;2.17;;
21665;SDS011;10994;45.486;9.190;2024-02-23T08:31:50;3.80;;;2.00;;
21665;SDS011;10994;45.486;9.190;2024-02-23T08:34:16;2.63;;;2.30;;
21665;SDS011;10994;45.486;9.190;2024-02-23T08:36:42;3.40;;;3.10;;
21665;SDS011;10994;45.486;9.190;2024-02-23T08:39:09;3.13;;;2.40;;
21665;SDS011;10994;45.486;9.190;2024-02-23T08:41:34;5.80;;;4.03;;
21665;SDS011;10994;45.486;9.190;2024-02-23T08:44:00;3.63;;;2.23;;
21665;SDS011;10994;45.486;9.190;2024-02-23T08:46:25;3.60;;;2.70;;
21665;SDS011;10994;45.486;9.190;2024-02-23T08:48:51;3.80;;;2.10;;
21665;SDS011;10994;45.486;9.190;2024-02-23T08:51:17;2.20;;;2.00;;
21665;SDS011;10994;45.486;9.190;2024-02-23T08:53:42;4.30;;;2.60;;
21665;SDS011;10994;45.486;9.190;2024-02-23T08:56:08;6.93;;;2.20;;
21665;SDS011;10994;45.486;9.190;2024-02-23T08:58:34;3.63;;;2.33;;
21665;SDS011;10994;45.486;9.190;2024-02-23T09:01:00;3.10;;;2.30;;
21665;SDS011;10994;45.486;9.190;2024-02-23T09:03:26;2.57;;;2.37;;
21665;SDS011;10994;45.486;9.190;2024-02-23T09:05:51;2.03;;;1.83;;
21665;SDS011;10994;45.486;9.190;2024-02-23T09:08:17;2.73;;;2.00;;
21665;SDS011;10994;45.486;9.190;2024-02-23T09:10:43;2.30;;;1.70;;
21665;SDS011;10994;45.486;9.190;2024-02-23T09:13:10;2.47;;;1.70;;
21665;SDS011;10994;45.486;9.190;2024-02-23T09:15:36;2.17;;;1.60;;
21665;SDS011;10994;45.486;9.190;2024-02-23T09:18:02;1.63;;;1.53;;
21665;SDS011;10994;45.486;9.190;2024-02-23T09:20:27;3.63;;;1.50;;
21665;SDS011;10994;45.486;9.190;2024-02-23T09:22:53;2.87;;;1.80;;
21665;SDS011;10994;45.486;9.190;2024-02-23T09:25:18;2.10;;;1.50;;
21665;SDS011;10994;45.486;9.190;2024-02-23T09:27:44;2.03;;;1.70;;
21665;SDS011;10994;45.486;9.190;2024-02-23T09:30:13;4.63;;;2.30;;
21665;SDS011;10994;45.486;9.190;2024-02-23T09:32:39;3.23;;;1.83;;
21665;SDS011;10994;45.486;9.190;2024-02-23T09:35:04;2.40;;;1.60;;
21665;SDS011;10994;45.486;9.190;2024-02-23T09:37:32;2.07;;;1.87;;
21665;SDS011;10994;45.486;9.190;2024-02-23T09:39:57;2.97;;;2.00;;
21665;SDS011;10994;45.486;9.190;2024-02-23T09:42:23;3.97;;;1.90;;
21665;SDS011;10994;45.486;9.190;2024-02-23T09:47:25;3.30;;;1.70;;
21665;SDS011;10994;45.486;9.190;2024-02-23T09:49:52;2.83;;;1.60;;
21665;SDS011;10994;45.486;9.190;2024-02-23T09:52:18;2.47;;;2.07;;
21665;SDS011;10994;45.486;9.190;2024-02-23T09:54:46;2.47;;;2.17;;
21665;SDS011;10994;45.486;9.190;2024-02-23T09:57:12;4.40;;;1.90;;
21665;SDS011;10994;45.486;9.190;2024-02-23T09:59:40;2.97;;;2.10;;
21665;SDS011;10994;45.486;9.190;2024-02-23T10:02:09;2.57;;;2.10;;
21665;SDS011;10994;45.486;9.190;2024-02-23T10:04:42;3.17;;;2.30;;
21665;SDS011;10994;45.486;9.190;2024-02-23T10:07:09;4.00;;;3.60;;
21665;SDS011;10994;45.486;9.190;2024-02-23T10:09:36;9.97;;;3.60;;
21665;SDS011;10994;45.486;9.190;2024-02-23T10:12:02;3.80;;;2.70;;
21665;SDS011;10994;45.486;9.190;2024-02-23T10:14:28;2.93;;;2.63;;
21665;SDS011;10994;45.486;9.190;2024-02-23T10:16:54;4.17;;;2.60;;
21665;SDS011;10994;45.486;9.190;2024-02-23T10:19:20;2.50;;;2.30;;
21665;SDS011;10994;45.486;9.190;2024-02-23T10:21:46;2.03;;;1.83;;
21665;SDS011;10994;45.486;9.190;2024-02-23T10:24:12;2.40;;;2.10;;
21665;SDS011;10994;45.486;9.190;2024-02-23T10:26:41;2.73;;;2.07;;
21665;SDS011;10994;45.486;9.190;2024-02-23T10:29:07;3.60;;;1.80;;
21665;SDS011;10994;45.486;9.190;2024-02-23T10:31:34;3.03;;;2.40;;
21665;SDS011;10994;45.486;9.190;2024-02-23T10:34:04;4.90;;;2.40;;
21665;SDS011;10994;45.486;9.190;2024-02-23T10:36:41;2.70;;;2.43;;
21665;SDS011;10994;45.486;9.190;2024-02-23T10:39:07;3.77;;;3.27;;
21665;SDS011;10994;45.486;9.190;2024-02-23T10:41:35;4.37;;;2.60;;
21665;SDS011;10994;45.486;9.190;2024-02-23T10:44:02;3.03;;;2.73;;
21665;SDS011;10994;45.486;9.190;2024-02-23T10:46:30;3.70;;;3.40;;
21665;SDS011;10994;45.486;9.190;2024-02-23T10:48:57;4.60;;;3.87;;
21665;SDS011;10994;45.486;9.190;2024-02-23T10:51:26;6.00;;;4.70;;
21665;SDS011;10994;45.486;9.190;2024-02-23T10:53:53;4.07;;;2.97;;
21665;SDS011;10994;45.486;9.190;2024-02-23T10:56:20;3.50;;;3.13;;
21665;SDS011;10994;45.486;9.190;2024-02-23T10:58:47;4.93;;;3.73;;
21665;SDS011;10994;45.486;9.190;2024-02-23T11:01:13;3.40;;;3.10;;
21665;SDS011;10994;45.486;9.190;2024-02-23T11:03:41;2.77;;;2.10;;
21665;SDS011;10994;45.486;9.190;2024-02-23T11:06:09;3.10;;;2.70;;
21665;SDS011;10994;45.486;9.190;2024-02-23T11:08:35;3.00;;;2.60;;
21665;SDS011;10994;45.486;9.190;2024-02-23T11:11:07;3.70;;;2.30;;
21665;SDS011;10994;45.486;9.190;2024-02-23T11:13:34;2.37;;;2.17;;
21665;SDS011;10994;45.486;9.190;2024-02-23T11:16:07;4.73;;;2.40;;
21665;SDS011;10994;45.486;9.190;2024-02-23T11:18:37;4.27;;;2.50;;
21665;SDS011;10994;45.486;9.190;2024-02-23T11:21:05;7.13;;;3.33;;
21665;SDS011;10994;45.486;9.190;2024-02-23T11:26:10;2.77;;;2.43;;
21665;SDS011;10994;45.486;9.190;2024-02-23T11:28:49;6.07;;;4.37;;
21665;SDS011;10994;45.486;9.190;2024-02-23T11:31:22;3.47;;;3.00;;
21665;SDS011;10994;45.486;9.190;2024-02-23T11:33:55;2.73;;;2.53;;
21665;SDS011;10994;45.486;9.190;2024-02-23T11:36:42;3.13;;;2.90;;
21665;SDS011;10994;45.486;9.190;2024-02-23T11:39:07;4.23;;;2.97;;
21665;SDS011;10994;45.486;9.190;2024-02-23T11:41:37;3.10;;;2.70;;
21665;SDS011;10994;45.486;9.190;2024-02-23T11:44:04;3.33;;;2.90;;
21665;SDS011;10994;45.486;9.190;2024-02-23T11:46:32;3.87;;;3.03;;
21665;SDS011;10994;45.486;9.190;2024-02-23T11:48:57;3.50;;;3.10;;
21665;SDS011;10994;45.486;9.190;2024-02-23T11:51:25;5.47;;;3.37;;
21665;SDS011;10994;45.486;9.190;2024-02-23T11:53:55;4.10;;;2.87;;
21665;SDS011;10994;45.486;9.190;2024-02-23T11:56:25;3.43;;;3.10;;
21665;SDS011;10994;45.486;9.190;2024-02-23T11:58:53;3.73;;;3.43;;
21665;SDS011;10994;45.486;9.190;2024-02-23T12:01:19;4.30;;;3.50;;
21665;SDS011;10994;45.486;9.190;2024-02-23T12:03:45;4.00;;;3.57;;
21665;SDS011;10994;45.486;9.190;2024-02-23T12:06:11;3.70;;;3.27;;
21665;SDS011;10994;45.486;9.190;2024-02-23T12:08:38;4.07;;;3.47;;
21665;SDS011;10994;45.486;9.190;2024-02-23T12:11:07;4.30;;;3.90;;
21665;SDS011;10994;45.486;9.190;2024-02-23T12:13:34;6.83;;;5.33;;
21665;SDS011;10994;45.486;9.190;2024-02-23T12:16:01;4.67;;;4.23;;
21665;SDS011;10994;45.486;9.190;2024-02-23T12:18:27;5.60;;;4.33;;
21665;SDS011;10994;45.486;9.190;2024-02-23T12:21:01;5.00;;;4.60;;
21665;SDS011;10994;45.486;9.190;2024-02-23T12:23:43;5.70;;;4.87;;
21665;SDS011;10994;45.486;9.190;2024-02-23T12:26:13;5.00;;;4.50;;
21665;SDS011;10994;45.486;9.190;2024-02-23T12:28:40;5.77;;;5.17;;
21665;SDS011;10994;45.486;9.190;2024-02-23T12:31:06;5.17;;;4.63;;
21665;SDS011;10994;45.486;9.190;2024-02-23T12:33:32;4.80;;;4.20;;
21665;SDS011;10994;45.486;9.190;2024-02-23T12:36:02;7.93;;;4.60;;
21665;SDS011;10994;45.486;9.190;2024-02-23T12:38:29;6.70;;;5.23;;
21665;SDS011;10994;45.486;9.190;2024-02-23T12:40:55;6.63;;;5.87;;
21665;SDS011;10994;45.486;9.190;2024-02-23T12:43:21;6.23;;;5.63;;
21665;SDS011;10994;45.486;9.190;2024-02-23T12:45:49;6.23;;;5.47;;
21665;SDS011;10994;45.486;9.190;2024-02-23T12:48:16;6.57;;;5.87;;
21665;SDS011;10994;45.486;9.190;2024-02-23T12:50:43;6.47;;;5.87;;
21665;SDS011;10994;45.486;9.190;2024-02-23T12:53:57;9.00;;;7.20;;
21665;SDS011;10994;45.486;9.190;2024-02-23T12:56:03;8.13;;;5.83;;
21665;SDS011;10994;45.486;9.190;2024-02-23T12:58:33;5.37;;;4.87;;
21665;SDS011;10994;45.486;9.190;2024-02-23T13:01:00;7.87;;;7.07;;
21665;SDS011;10994;45.486;9.190;2024-02-23T13:03:26;6.10;;;5.47;;
21665;SDS011;10994;45.486;9.190;2024-02-23T13:05:53;7.97;;;6.83;;
21665;SDS011;10994;45.486;9.190;2024-02-23T13:08:19;4.90;;;4.40;;
21665;SDS011;10994;45.486;9.190;2024-02-23T13:10:44;5.90;;;5.30;;
21665;SDS011;10994;45.486;9.190;2024-02-23T13:13:10;5.60;;;5.03;;
21665;SDS011;10994;45.486;9.190;2024-02-23T13:15:37;4.97;;;4.43;;
21665;SDS011;10994;45.486;9.190;2024-02-23T13:18:03;5.03;;;4.53;;
21665;SDS011;10994;45.486;9.190;2024-02-23T13:20:30;5.50;;;4.90;;
21665;SDS011;10994;45.486;9.190;2024-02-23T13:22:55;5.80;;;5.20;;
21665;SDS011;10994;45.486;9.190;2024-02-23T13:25:21;5.53;;;4.97;;
21665;SDS011;10994;45.486;9.190;2024-02-23T13:27:47;6.17;;;5.27;;
21665;SDS011;10994;45.486;9.190;2024-02-23T13:30:13;5.80;;;5.20;;
21665;SDS011;10994;45.486;9.190;2024-02-23T13:32:39;5.67;;;4.70;;
21665;SDS011;10994;45.486;9.190;2024-02-23T13:35:05;5.60;;;4.97;;
21665;SDS011;10994;45.486;9.190;2024-02-23T13:37:31;6.07;;;4.47;;
21665;SDS011;10994;45.486;9.190;2024-02-23T13:39:58;6.10;;;4.80;;
21665;SDS011;10994;45.486;9.190;2024-02-23T13:42:23;5.47;;;4.43;;
21665;SDS011;10994;45.486;9.190;2024-02-23T13:44:49;5.70;;;5.00;;
21665;SDS011;10994;45.486;9.190;2024-02-23T13:47:15;5.50;;;5.00;;
21665;SDS011;10994;45.486;9.190;2024-02-23T13:49:40;5.20;;;4.70;;
21665;SDS011;10994;45.486;9.190;2024-02-23T13:52:06;6.10;;;5.50;;
21665;SDS011;10994;45.486;9.190;2024-02-23T13:54:32;6.40;;;5.07;;
21665;SDS011;10994;45.486;9.190;2024-02-23T13:57:02;5.03;;;4.53;;
21665;SDS011;10994;45.486;9.190;2024-02-23T13:59:27;7.23;;;5.00;;
21665;SDS011;10994;45.486;9.190;2024-02-23T14:01:53;6.53;;;5.07;;
21665;SDS011;10994;45.486;9.190;2024-02-23T14:04:19;5.63;;;5.13;;
21665;SDS011;10994;45.486;9.190;2024-02-23T14:06:44;6.63;;;6.03;;
21665;SDS011;10994;45.486;9.190;2024-02-23T14:09:10;7.83;;;6.30;;
21665;SDS011;10994;45.486;9.190;2024-02-23T14:11:35;5.37;;;4.90;;
21665;SDS011;10994;45.486;9.190;2024-02-23T14:14:01;6.23;;;5.10;;
21665;SDS011;10994;45.486;9.190;2024-02-23T14:16:28;7.70;;;5.53;;
21665;SDS011;10994;45.486;9.190;2024-02-23T14:18:54;8.10;;;5.30;;
21665;SDS011;10994;45.486;9.190;2024-02-23T14:21:20;6.17;;;5.57;;
21665;SDS011;10994;45.486;9.190;2024-02-23T14:23:47;7.47;;;5.70;;
21665;SDS011;10994;45.486;9.190;2024-02-23T14:26:13;8.03;;;7.23;;
21665;SDS011;10994;45.486;9.190;2024-02-23T14:28:39;6.63;;;5.93;;
21665;SDS011;10994;45.486;9.190;2024-02-23T14:31:04;7.90;;;6.73;;
21665;SDS011;10994;45.486;9.190;2024-02-23T14:33:31;10.43;;;7.13;;
21665;SDS011;10994;45.486;9.190;2024-02-23T14:35:57;7.60;;;6.80;;
21665;SDS011;10994;45.486;9.190;2024-02-23T14:38:22;8.17;;;7.07;;
21665;SDS011;10994;45.486;9.190;2024-02-23T14:40:48;8.17;;;7.37;;
21665;SDS011;10994;45.486;9.190;2024-02-23T14:43:14;8.13;;;7.10;;
21665;SDS011;10994;45.486;9.190;2024-02-23T14:45:40;8.13;;;7.20;;
21665;SDS011;10994;45.486;9.190;2024-02-23T14:48:06;8.53;;;6.77;;
21665;SDS011;10994;45.486;9.190;2024-02-23T14:50:32;8.30;;;7.07;;